createdAt,value
2023-03-27T00:00:16.704Z,1.32
2023-03-27T00:05:20.653Z,1.17
2023-03-27T00:10:24.543Z,1.22
2023-03-27T00:15:28.695Z,1.34
2023-03-27T00:20:37.142Z,1.38
2023-03-27T00:25:41.053Z,1.20
2023-03-27T00:30:46.475Z,1.31
2023-03-27T00:35:50.740Z,1.33
2023-03-27T00:40:55.473Z,1.27
2023-03-27T00:46:04.228Z,1.20
2023-03-27T00:51:07.817Z,1.16
2023-03-27T00:56:11.466Z,1.24
2023-03-27T01:01:18.157Z,1.25
2023-03-27T01:06:22.323Z,1.20
2023-03-27T01:11:39.279Z,1.12
2023-03-27T01:16:50.406Z,1.13
2023-03-27T01:22:22.016Z,1.14
2023-03-27T01:27:45.704Z,1.00
2023-03-27T01:33:21.522Z,0.88
2023-03-27T01:38:56.754Z,1.01
2023-03-27T01:44:06.092Z,0.92
2023-03-27T01:49:14.762Z,0.68
2023-03-27T01:54:21.761Z,0.77
2023-03-27T01:59:28.738Z,0.78
2023-03-27T02:04:38.306Z,0.60
2023-03-27T02:09:45.848Z,0.71
2023-03-27T02:14:55.628Z,0.22
2023-03-27T02:20:02.588Z,0.21
2023-03-27T02:25:27.203Z,0.22
2023-03-27T02:30:40.171Z,0.15
2023-03-27T02:35:53.157Z,0.22
2023-03-27T02:41:02.683Z,0.30
2023-03-27T02:46:30.604Z,0.21
2023-03-27T02:51:40.587Z,0.05
2023-03-27T02:56:48.600Z,-0.07
2023-03-27T03:02:01.384Z,-0.24
2023-03-27T03:07:08.936Z,-0.06
2023-03-27T03:12:12.206Z,0.03
2023-03-27T03:17:21.532Z,-0.00
2023-03-27T03:22:24.390Z,-0.05
2023-03-27T03:27:29.200Z,-0.47
2023-03-27T03:32:44.665Z,-0.09
2023-03-27T03:37:51.171Z,-0.14
2023-03-27T03:42:54.986Z,-0.44
2023-03-27T03:48:03.410Z,-0.64
2023-03-27T03:53:06.268Z,-0.38
2023-03-27T03:58:09.273Z,-0.45
2023-03-27T04:03:15.772Z,-0.43
2023-03-27T04:08:19.153Z,-0.45
2023-03-27T04:13:32.041Z,-0.36
2023-03-27T04:18:44.154Z,-0.11
2023-03-27T04:23:53.894Z,-0.30
2023-03-27T04:29:04.050Z,-0.32
2023-03-27T04:34:40.343Z,-0.31
2023-03-27T04:40:00.304Z,-0.36
2023-03-27T04:45:04.237Z,-0.30
2023-03-27T04:50:10.244Z,-0.01
2023-03-27T04:55:13.267Z,-0.25
2023-03-27T05:00:23.099Z,-0.09
2023-03-27T05:05:51.009Z,0.06
2023-03-27T05:10:54.021Z,0.18
2023-03-27T05:15:59.077Z,0.37
2023-03-27T05:21:06.029Z,0.38
2023-03-27T05:26:09.011Z,0.60
2023-03-27T05:31:24.915Z,0.52
2023-03-27T05:36:54.973Z,0.58
2023-03-27T05:41:58.266Z,0.36
2023-03-27T05:47:01.337Z,0.05
2023-03-27T05:52:08.459Z,0.15
2023-03-27T05:57:11.775Z,0.55
2023-03-27T06:02:21.098Z,0.64
2023-03-27T06:07:32.406Z,0.78
2023-03-27T06:12:40.466Z,0.57
2023-03-27T06:17:53.147Z,0.53
2023-03-27T06:23:00.435Z,0.39
2023-03-27T06:28:09.363Z,0.78
2023-03-27T06:33:18.013Z,0.80
2023-03-27T06:38:22.904Z,1.18
2023-03-27T06:43:26.454Z,1.60
2023-03-27T06:48:51.023Z,1.61
2023-03-27T06:53:56.643Z,1.63
2023-03-27T06:58:59.719Z,1.79
2023-03-27T07:04:04.089Z,2.37
2023-03-27T07:09:31.101Z,2.22
2023-03-27T07:14:39.104Z,2.66
2023-03-27T07:19:42.087Z,2.41
2023-03-27T07:24:49.759Z,2.92
2023-03-27T07:29:54.482Z,3.27
2023-03-27T07:34:58.259Z,3.11
2023-03-27T07:40:36.971Z,3.59
2023-03-27T07:46:14.865Z,4.10
2023-03-27T07:51:18.315Z,4.52
2023-03-27T07:56:23.333Z,4.73
2023-03-27T08:01:41.322Z,5.06
2023-03-27T08:06:44.598Z,4.68
2023-03-27T08:11:57.421Z,5.61
2023-03-27T08:17:14.699Z,5.05
2023-03-27T08:22:21.056Z,5.66
2023-03-27T08:27:44.872Z,5.87
2023-03-27T08:32:49.331Z,5.28
2023-03-27T08:37:52.754Z,4.91
2023-03-27T08:43:07.870Z,4.20
2023-03-27T08:48:16.184Z,3.50
2023-03-27T08:53:34.060Z,3.73
2023-03-27T08:58:41.540Z,5.75
2023-03-27T09:04:01.671Z,5.67
2023-03-27T09:09:14.281Z,5.70
2023-03-27T09:14:31.206Z,6.63
2023-03-27T09:19:44.533Z,6.95
2023-03-27T09:24:54.370Z,7.10
2023-03-27T09:30:29.378Z,7.90
2023-03-27T09:35:47.490Z,7.33
2023-03-27T09:40:56.216Z,7.09
2023-03-27T09:46:04.184Z,7.77
2023-03-27T09:51:36.960Z,8.98
2023-03-27T09:56:44.125Z,8.39
2023-03-27T10:01:50.520Z,7.74
2023-03-27T10:07:01.618Z,6.58
2023-03-27T10:12:25.462Z,7.13
2023-03-27T10:17:39.866Z,8.57
2023-03-27T10:22:54.663Z,7.76
2023-03-27T10:28:18.571Z,9.26
2023-03-27T10:33:42.398Z,7.47
2023-03-27T10:39:10.979Z,6.85
2023-03-27T10:44:25.650Z,7.54
2023-03-27T10:49:42.483Z,9.02
2023-03-27T10:55:05.170Z,10.59
2023-03-27T11:00:18.348Z,8.57
2023-03-27T11:05:45.148Z,8.26
2023-03-27T11:11:07.171Z,6.70
2023-03-27T11:16:17.943Z,6.56
2023-03-27T11:21:44.759Z,7.12
2023-03-27T11:27:00.872Z,8.45
2023-03-27T11:32:12.787Z,9.95
2023-03-27T11:37:30.827Z,11.24
2023-03-27T11:42:39.969Z,11.53
2023-03-27T11:48:10.802Z,11.76
2023-03-27T11:53:35.914Z,10.06
2023-03-27T11:59:02.570Z,10.54
2023-03-27T12:04:19.142Z,10.77
2023-03-27T12:09:59.850Z,9.96
2023-03-27T12:15:41.560Z,10.15
2023-03-27T12:21:17.596Z,9.80
2023-03-27T12:26:52.843Z,9.34
2023-03-27T12:32:52.111Z,9.92
2023-03-27T12:38:00.612Z,8.78
2023-03-27T12:43:29.838Z,5.48
2023-03-27T12:48:51.442Z,3.86
2023-03-27T12:53:59.311Z,3.91
2023-03-27T12:59:15.830Z,6.85
2023-03-27T13:04:41.322Z,9.70
2023-03-27T13:10:00.679Z,9.11
2023-03-27T13:15:57.510Z,10.03
2023-03-27T13:21:21.472Z,12.21
2023-03-27T13:26:37.659Z,12.99
2023-03-27T13:32:03.812Z,11.95
2023-03-27T13:37:49.028Z,11.46
2023-03-27T13:43:01.530Z,11.36
2023-03-27T13:48:43.544Z,14.74
2023-03-27T13:53:55.031Z,14.87
2023-03-27T13:59:44.649Z,9.24
2023-03-27T14:05:10.774Z,6.06
2023-03-27T14:10:37.536Z,6.88
2023-03-27T14:16:04.109Z,8.63
2023-03-27T14:21:35.558Z,9.15
2023-03-27T14:26:45.291Z,7.10
2023-03-27T14:31:50.880Z,6.10
2023-03-27T14:37:29.277Z,5.60
2023-03-27T14:42:37.060Z,4.55
2023-03-27T14:47:40.531Z,6.74
2023-03-27T14:52:45.774Z,7.65
2023-03-27T14:58:18.450Z,6.76
2023-03-27T15:03:26.104Z,6.34
2023-03-27T15:08:36.901Z,6.21
2023-03-27T15:13:49.803Z,7.21
2023-03-27T15:19:09.644Z,7.83
2023-03-27T15:24:19.589Z,7.17
2023-03-27T15:29:32.857Z,7.30
2023-03-27T15:34:46.015Z,7.40
2023-03-27T15:40:28.475Z,8.06
2023-03-27T15:45:40.288Z,6.90
2023-03-27T15:50:55.096Z,6.69
2023-03-27T15:56:00.571Z,7.59
2023-03-27T16:01:19.091Z,6.90
2023-03-27T16:06:30.699Z,6.60
2023-03-27T16:11:39.553Z,6.74
2023-03-27T16:16:42.494Z,7.80
2023-03-27T16:21:56.129Z,7.78
2023-03-27T16:27:00.527Z,6.51
2023-03-27T16:32:03.313Z,6.52
2023-03-27T16:37:06.280Z,7.16
2023-03-27T16:42:14.011Z,5.60
2023-03-27T16:47:17.342Z,5.53
2023-03-27T16:52:20.210Z,5.22
2023-03-27T16:57:24.409Z,5.13
2023-03-27T17:02:28.797Z,5.85
2023-03-27T17:07:31.681Z,5.77
2023-03-27T17:12:35.819Z,5.73
2023-03-27T17:17:38.688Z,4.81
2023-03-27T17:22:41.703Z,3.77
2023-03-27T17:27:45.895Z,4.65
2023-03-27T17:32:48.708Z,4.65
2023-03-27T17:37:51.603Z,4.14
2023-03-27T17:42:55.756Z,4.10
2023-03-27T17:47:58.594Z,4.07
2023-03-27T17:53:01.351Z,4.00
2023-03-27T17:58:09.721Z,3.61
2023-03-27T18:03:13.416Z,3.37
2023-03-27T18:08:18.211Z,3.64
2023-03-27T18:13:22.434Z,3.37
2023-03-27T18:18:26.879Z,3.14
2023-03-27T18:23:29.695Z,3.48
2023-03-27T18:28:34.223Z,3.26
2023-03-27T18:33:37.516Z,2.81
2023-03-27T18:38:42.059Z,2.79
2023-03-27T18:43:46.747Z,2.74
2023-03-27T18:48:49.910Z,2.45
2023-03-27T18:53:52.736Z,2.48
2023-03-27T18:58:56.889Z,2.55
2023-03-27T19:03:59.646Z,2.21
2023-03-27T19:09:02.602Z,2.38
2023-03-27T19:14:06.740Z,2.37
2023-03-27T19:19:13.396Z,2.11
2023-03-27T19:24:34.547Z,2.33
2023-03-27T19:29:39.032Z,2.41
2023-03-27T19:34:43.064Z,2.34
2023-03-27T19:39:46.230Z,2.09
2023-03-27T19:44:50.409Z,2.73
2023-03-27T19:49:53.637Z,2.40
2023-03-27T19:55:25.273Z,2.28
2023-03-27T20:00:31.389Z,2.02
2023-03-27T20:05:34.422Z,2.20
2023-03-27T20:10:37.206Z,2.38
2023-03-27T20:15:41.981Z,2.20
2023-03-27T20:20:46.165Z,1.98
2023-03-27T20:25:51.640Z,1.92
2023-03-27T20:30:55.903Z,1.61
2023-03-27T20:35:59.068Z,1.92
2023-03-27T20:41:03.630Z,1.76
2023-03-27T20:46:10.638Z,1.53
2023-03-27T20:51:17.635Z,1.67
2023-03-27T20:56:21.775Z,1.79
2023-03-27T21:01:27.460Z,1.83
2023-03-27T21:06:30.793Z,2.34
2023-03-27T21:11:33.603Z,1.87
2023-03-27T21:16:38.440Z,1.89
2023-03-27T21:21:41.347Z,1.86
2023-03-27T21:26:44.131Z,1.96
2023-03-27T21:31:48.385Z,1.95
2023-03-27T21:36:51.461Z,1.78
2023-03-27T21:41:54.307Z,1.40
2023-03-27T21:46:58.442Z,1.40
2023-03-27T21:52:01.233Z,1.96
2023-03-27T21:57:04.115Z,1.73
2023-03-27T22:02:08.508Z,1.80
2023-03-27T22:07:11.330Z,1.81
2023-03-27T22:12:14.181Z,1.70
2023-03-27T22:17:18.454Z,1.83
2023-03-27T22:22:21.420Z,1.68
2023-03-27T22:27:24.195Z,1.58
2023-03-27T22:32:28.361Z,1.60
2023-03-27T22:37:31.190Z,1.33
2023-03-27T22:42:34.807Z,1.24
2023-03-27T22:47:39.049Z,1.44
2023-03-27T22:52:41.811Z,1.63
2023-03-27T22:57:44.603Z,1.23
2023-03-27T23:02:48.874Z,1.33
2023-03-27T23:07:51.715Z,1.23
2023-03-27T23:12:54.640Z,1.35
2023-03-27T23:17:58.857Z,1.65
2023-03-27T23:23:01.696Z,1.48
2023-03-27T23:28:04.722Z,1.86
2023-03-27T23:33:10.843Z,1.37
2023-03-27T23:38:13.737Z,1.88
2023-03-27T23:43:16.569Z,1.42
2023-03-27T23:48:20.724Z,1.43
2023-03-27T23:53:25.588Z,1.43
2023-03-27T23:58:32.572Z,1.43
